Bignell, Nebraska
Current Conditions -  °F | °C
As of 5:53 PM on Sunday 21 Dec 2014 (Local Time) from KLBF Reporting Station
Overcast Overcast  
Wind Chill: 33°   Ceiling: 8000
Heat Index: 37°   Visibility: 10mi
Dew Point: 32°   Wind: 5mph
Humidity: 82%   Direction: 150°SSE
Pressure: 29.51"   Gusts: NA
Location:  41.0617°N, 100.501°W
Report Text: KLBF 212353Z AUTO 15004KT 10SM OVC080 03/00 A2951 RMK AO2 SLP012 T00280000 10067 20028 55008 $
Loading
Personal Weather Stations






























Interactive Weather Map New forecast layout! Learn more

10-Day Weather Forecast

Advertisements
Track Severe Weather on mobile